Terminal Aerodrome Forecast
Issued by NWS Jackson, MS

Current Version | Previous Version | Text Only | Print | Product List | Glossary On
Versions: 1 2 3 4 5 6 7 8 9 10 11 12 13
000
FTUS44 KJAN 261725
TAFMEI
TAF
KMEI 261725Z 2618/2718 21008KT P6SM BKN025
     FM261900 22009KT P6SM BKN035
     FM270700 18005KT 5SM BR BKN025
     FM270800 18005KT 2SM BR BKN008
     FM271000 18005KT 2SM BR BKN003
     FM271200 19005KT 4SM BR BKN003
     FM271400 19007KT P6SM BKN008=

USA.gov is the U.S. government's official web portal to all federal, state and local government web resources and services.